15:22
Airports
Links
Donate
Help keep this website running!
PayPal
Bitcoin
METAR
ZSNJ 191500Z 05001MPS 0900 R06/0800V1700U R07/1700N FG SCT015 06/05 Q1024 BECMG TL1630 0700 FG
Current Weather Conditions at ZSNJ
LIFR 15:00:00 19-01-18
Altimeter:30.24 hg
Temp:6.0°c 43°f
Dew point:5.0°c 41°f
Wind:2 knots, 2.3 mph, 1 m/s, from 50°
Visibility:0.56 statute miles
1500(SCT) Scattered
Past METAR reports
LIFR 14:00:00 19-01-18
Altimeter:30.21 hg
Temp:6.0°c 43°f
Dew point:5.0°c 41°f
Wind:2 knots, 2.3 mph, 1 m/s,
Variable direction
Visibility:0.62 statute miles
1700(SCT) Scattered
No significant weather changes expected within 2 hours.
ZSNJ 191400Z VRB01MPS 1000 R06/0900V1600D R07/1700D BR SCT017 06/05 Q1023 NOSIG
LIFR 13:00:00 19-01-18
Altimeter:30.21 hg
Temp:6.0°c 43°f
Dew point:5.0°c 41°f
Wind:2 knots, 2.3 mph, 1 m/s, from 360°
Visibility:0.75 statute miles
2000(SCT) Scattered
No significant weather changes expected within 2 hours.
ZSNJ 191300Z 36001MPS 1200 R06/0800V1600D R07/1900D BR SCT020 06/05 Q1023 NOSIG
LIFR 12:00:00 19-01-18
Altimeter:30.21 hg
Temp:6.0°c 43°f
Dew point:5.0°c 41°f
Wind:4 knots, 4.6 mph, 2 m/s, from 160°
Visibility:0.93 statute miles
3000(OVC) Overcast
2100(SCT) Scattered
ZSNJ 191200Z 16002MPS 1500 R06/0900VP2000D R07/1700N BR SCT021 OVC030 06/05 Q1023 BECMG TL1330 1400 BR
LIFR 11:00:00 19-01-18
Altimeter:30.24 hg
Temp:7.0°c 45°f
Dew point:5.0°c 41°f
Wind:2 knots, 2.3 mph, 1 m/s,
Variable direction
Visibility:0.87 statute miles
3000(OVC) Overcast
2100(SCT) Scattered
ZSNJ 191100Z VRB01MPS 1400 R06/0900VP2000U R07/2000N BR SCT021 OVC030 07/05 Q1024 BECMG TL1200 1600
LIFR 10:00:00 19-01-18
Altimeter:30.21 hg
Temp:7.0°c 45°f
Dew point:5.0°c 41°f
Wind:4 knots, 4.6 mph, 2 m/s, from 70°
Visibility:0.75 statute miles
3000(OVC) Overcast
1100(SCT) Scattered
No significant weather changes expected within 2 hours.
ZSNJ 191000Z 07002MPS 1200 R06/1000V1900D R07/P2000 BR SCT011 OVC030 07/05 Q1023 NOSIG
TAF
TAF ZSNJ 190911Z 1912/2012 09003MPS 1000 BR SCT010 OVC030 TX11/2006Z TN03/1921Z BECMG 1913/1914 0600 FG BECMG 1917/1918 0300 FG BECMG 2000/2001 0800 FG BECMG 2002/2003 1600 BR
Forecast at ZSNJ
12:00 19-01-18 to 13:00 19-01-18
BR
Wind:6 Knots from 90°
Visibility:0.62 statute miles
1000SCT Scattered
3000OVC Overcast
BECMG 13:00 19-01-18 to 17:00 19-01-18
FG
Wind:6 Knots from 90°
Visibility:0.37 statute miles
1000SCT Scattered
3000OVC Overcast
BECMG 17:00 19-01-18 to 00:00 20-01-18
FG
Wind:6 Knots from 90°
Visibility:0.19 statute miles
1000SCT Scattered
3000OVC Overcast
BECMG 00:00 20-01-18 to 02:00 20-01-18
FG
Wind:6 Knots from 90°
Visibility:0.5 statute miles
1000SCT Scattered
3000OVC Overcast
BECMG 02:00 20-01-18 to 12:00 20-01-18
BR
Wind:6 Knots from 90°
Visibility:0.99 statute miles
1000SCT Scattered
3000OVC Overcast